createdAt,value
2018-07-08T00:01:32.357Z,4.10
2018-07-08T00:04:00.669Z,3.40
2018-07-08T00:06:29.021Z,3.60
2018-07-08T00:10:21.751Z,3.90
2018-07-08T00:12:50.026Z,4.23
2018-07-08T00:15:18.658Z,5.07
2018-07-08T00:17:48.205Z,3.97
2018-07-08T00:20:16.509Z,4.83
2018-07-08T00:22:44.841Z,4.20
2018-07-08T00:25:13.181Z,3.23
2018-07-08T00:27:41.483Z,3.97
2018-07-08T00:30:09.821Z,4.50
2018-07-08T00:32:38.094Z,3.80
2018-07-08T00:35:06.389Z,3.50
2018-07-08T00:37:34.685Z,3.83
2018-07-08T00:40:03.094Z,3.50
2018-07-08T00:42:32.430Z,4.00
2018-07-08T00:45:00.833Z,4.23
2018-07-08T00:47:29.103Z,3.57
2018-07-08T00:49:57.383Z,3.87
2018-07-08T00:52:25.620Z,4.27
2018-07-08T00:54:53.885Z,4.67
2018-07-08T00:57:22.148Z,3.83
2018-07-08T00:59:50.449Z,3.60
2018-07-08T01:02:18.696Z,4.20
2018-07-08T01:04:48.990Z,3.73
2018-07-08T01:07:17.260Z,3.20
2018-07-08T01:09:45.565Z,4.27
2018-07-08T01:12:13.821Z,3.50
2018-07-08T01:14:42.129Z,3.90
2018-07-08T01:17:10.369Z,3.23
2018-07-08T01:19:38.645Z,4.65
2018-07-08T01:22:06.942Z,3.50
2018-07-08T01:24:35.201Z,3.40
2018-07-08T01:27:03.545Z,4.20
2018-07-08T01:29:31.790Z,4.00
2018-07-08T01:32:00.073Z,3.93
2018-07-08T01:34:28.329Z,3.87
2018-07-08T01:36:56.612Z,3.70
2018-07-08T01:39:24.898Z,3.73
2018-07-08T01:41:53.330Z,3.80
2018-07-08T01:49:10.260Z,3.90
2018-07-08T01:51:38.556Z,4.17
2018-07-08T01:54:06.829Z,4.27
2018-07-08T01:56:35.116Z,4.33
2018-07-08T01:59:03.393Z,3.07
2018-07-08T02:01:31.669Z,4.60
2018-07-08T02:03:59.945Z,3.37
2018-07-08T02:06:28.269Z,3.73
2018-07-08T02:08:58.100Z,3.83
2018-07-08T02:11:26.362Z,4.30
2018-07-08T02:13:55.316Z,3.43
2018-07-08T02:16:23.775Z,4.00
2018-07-08T02:18:52.076Z,3.77
2018-07-08T02:21:20.365Z,3.90
2018-07-08T02:23:48.664Z,4.33
2018-07-08T02:26:16.918Z,3.70
2018-07-08T02:28:46.289Z,5.45
2018-07-08T02:31:14.577Z,3.63
2018-07-08T02:33:42.870Z,3.80
2018-07-08T02:36:11.136Z,3.63
2018-07-08T02:38:40.558Z,3.20
2018-07-08T02:41:08.860Z,4.07
2018-07-08T02:43:37.194Z,4.50
2018-07-08T02:46:05.516Z,3.60
2018-07-08T02:48:33.817Z,3.93
2018-07-08T02:51:02.121Z,3.77
2018-07-08T02:53:30.436Z,3.30
2018-07-08T02:55:59.697Z,3.83
2018-07-08T02:58:27.963Z,3.30
2018-07-08T03:00:56.402Z,2.80
2018-07-08T03:03:24.657Z,3.87
2018-07-08T03:05:52.929Z,3.40
2018-07-08T03:08:21.173Z,3.00
2018-07-08T03:10:49.461Z,2.97
2018-07-08T03:13:18.932Z,3.30
2018-07-08T03:15:47.201Z,3.73
2018-07-08T03:18:15.481Z,3.90
2018-07-08T03:20:43.741Z,3.60
2018-07-08T03:23:12.089Z,4.43
2018-07-08T03:25:40.378Z,3.40
2018-07-08T03:28:08.649Z,4.03
2018-07-08T03:30:36.925Z,4.40
2018-07-08T03:33:05.174Z,3.43
2018-07-08T03:35:33.445Z,4.20
2018-07-08T03:38:01.897Z,3.07
2018-07-08T03:40:30.182Z,3.90
2018-07-08T03:42:58.488Z,3.50
2018-07-08T03:45:26.785Z,4.40
2018-07-08T03:47:55.041Z,3.83
2018-07-08T03:50:24.426Z,3.80
2018-07-08T03:52:54.301Z,4.07
2018-07-08T03:55:22.659Z,3.80
2018-07-08T03:57:51.033Z,3.60
2018-07-08T04:00:19.296Z,3.37
2018-07-08T04:02:47.581Z,3.20
2018-07-08T04:05:15.838Z,3.50
2018-07-08T04:07:44.181Z,3.50
2018-07-08T04:10:12.437Z,3.33
2018-07-08T04:12:40.737Z,3.83
2018-07-08T04:15:09.053Z,3.57
2018-07-08T04:17:38.304Z,4.20
2018-07-08T04:20:06.580Z,3.97
2018-07-08T04:22:34.864Z,3.97
2018-07-08T04:25:03.334Z,3.20
2018-07-08T04:27:32.624Z,3.47
2018-07-08T04:30:00.877Z,2.70
2018-07-08T04:32:29.153Z,3.23
2018-07-08T04:34:57.397Z,4.07
2018-07-08T04:37:25.696Z,3.27
2018-07-08T04:39:53.961Z,4.40
2018-07-08T04:42:23.314Z,4.07
2018-07-08T04:44:51.653Z,3.63
2018-07-08T04:47:19.937Z,4.23
2018-07-08T04:49:48.192Z,4.60
2018-07-08T04:52:16.541Z,4.50
2018-07-08T04:54:44.796Z,5.40
2018-07-08T04:57:13.045Z,3.03
2018-07-08T04:59:42.384Z,3.97
2018-07-08T05:02:10.721Z,3.30
2018-07-08T05:04:39.133Z,3.57
2018-07-08T05:07:08.489Z,3.63
2018-07-08T05:09:38.800Z,3.60
2018-07-08T05:12:07.158Z,3.70
2018-07-08T05:14:35.593Z,4.47
2018-07-08T05:17:03.838Z,3.60
2018-07-08T05:19:33.109Z,3.53
2018-07-08T05:22:01.367Z,3.70
2018-07-08T05:24:29.721Z,2.80
2018-07-08T05:26:58.022Z,3.60
2018-07-08T05:29:26.311Z,4.20
2018-07-08T05:31:55.649Z,4.57
2018-07-08T05:34:23.934Z,4.13
2018-07-08T05:36:52.185Z,4.03
2018-07-08T05:39:20.473Z,4.53
2018-07-08T05:41:48.805Z,4.10
2018-07-08T05:44:17.183Z,3.70
2018-07-08T05:46:45.482Z,3.90
2018-07-08T05:49:14.737Z,3.00
2018-07-08T05:51:43.053Z,4.70
2018-07-08T05:54:12.385Z,4.03
2018-07-08T05:56:40.819Z,3.53
2018-07-08T05:59:09.069Z,4.03
2018-07-08T06:01:37.397Z,3.70
2018-07-08T06:04:06.725Z,4.83
2018-07-08T06:06:35.026Z,4.30
2018-07-08T06:09:03.344Z,4.00
2018-07-08T06:11:32.717Z,3.00
2018-07-08T06:14:00.981Z,3.60
2018-07-08T06:16:29.249Z,3.00
2018-07-08T06:18:57.543Z,3.97
2018-07-08T06:21:25.813Z,4.40
2018-07-08T06:23:54.089Z,3.53
2018-07-08T06:26:22.406Z,3.47
2018-07-08T06:28:50.677Z,4.20
2018-07-08T06:31:18.967Z,3.63
2018-07-08T06:33:47.253Z,4.60
2018-07-08T06:36:15.549Z,5.70
2018-07-08T06:38:43.860Z,3.30
2018-07-08T06:41:12.125Z,3.90
2018-07-08T06:43:40.452Z,4.27
2018-07-08T06:46:08.693Z,4.20
2018-07-08T06:48:37.060Z,3.67
2018-07-08T06:51:05.344Z,3.60
2018-07-08T06:53:33.639Z,4.10
2018-07-08T06:56:01.907Z,4.47
2018-07-08T06:58:30.205Z,4.50
2018-07-08T07:00:58.481Z,4.07
2018-07-08T07:03:27.833Z,3.37
2018-07-08T07:05:56.107Z,5.10
2018-07-08T07:08:24.409Z,3.77
2018-07-08T07:10:52.673Z,3.80
2018-07-08T07:13:20.949Z,6.80
2018-07-08T07:15:49.234Z,4.73
2018-07-08T07:18:17.513Z,5.47
2018-07-08T07:20:45.761Z,5.07
2018-07-08T07:23:14.056Z,4.13
2018-07-08T07:25:42.293Z,3.90
2018-07-08T07:28:10.573Z,4.70
2018-07-08T07:30:38.879Z,4.60
2018-07-08T07:33:08.285Z,3.40
2018-07-08T07:35:37.593Z,3.93
2018-07-08T07:38:06.001Z,4.07
2018-07-08T07:40:34.321Z,3.87
2018-07-08T07:43:02.645Z,4.50
2018-07-08T07:45:30.959Z,3.40
2018-07-08T07:47:59.245Z,5.00
2018-07-08T07:50:28.651Z,3.43
2018-07-08T07:52:56.901Z,3.90
2018-07-08T07:55:25.202Z,4.00
2018-07-08T07:57:53.486Z,5.13
2018-07-08T08:00:22.022Z,4.33
2018-07-08T08:02:50.310Z,5.43
2018-07-08T08:05:18.600Z,5.57
2018-07-08T08:07:47.945Z,5.40
2018-07-08T08:10:16.237Z,4.03
2018-07-08T08:12:45.600Z,4.73
2018-07-08T08:15:14.041Z,4.70
2018-07-08T08:17:42.319Z,4.00
2018-07-08T08:20:10.613Z,3.67
2018-07-08T08:22:39.938Z,5.00
2018-07-08T08:25:08.186Z,4.30
2018-07-08T08:27:36.452Z,4.30
2018-07-08T08:30:04.965Z,4.07
2018-07-08T08:32:33.233Z,4.50
2018-07-08T08:35:05.569Z,5.33
2018-07-08T08:37:34.957Z,4.50
2018-07-08T08:40:03.427Z,4.10
2018-07-08T08:42:31.785Z,4.03
2018-07-08T08:45:00.576Z,4.53
2018-07-08T08:47:30.664Z,5.07
2018-07-08T08:49:59.074Z,4.27
2018-07-08T08:52:27.468Z,4.17
2018-07-08T08:54:56.157Z,4.93
2018-07-08T08:57:24.425Z,4.30
2018-07-08T08:59:52.770Z,4.20
2018-07-08T09:02:22.097Z,4.33
2018-07-08T09:04:51.337Z,3.70
2018-07-08T09:07:20.410Z,3.93
2018-07-08T09:09:48.662Z,3.47
2018-07-08T09:12:16.966Z,4.30
2018-07-08T09:14:45.205Z,5.10
2018-07-08T09:17:13.498Z,4.63
2018-07-08T09:19:42.093Z,3.80
2018-07-08T09:22:10.972Z,4.90
2018-07-08T09:24:39.369Z,4.97
2018-07-08T09:27:07.925Z,4.03
2018-07-08T09:29:36.212Z,4.83
2018-07-08T09:32:04.542Z,5.50
2018-07-08T09:34:32.815Z,4.00
2018-07-08T09:37:01.057Z,3.97
2018-07-08T09:39:29.389Z,4.43
2018-07-08T09:41:57.746Z,4.10
2018-07-08T09:44:26.024Z,3.57
2018-07-08T09:46:54.273Z,3.90
2018-07-08T09:49:22.553Z,4.40
2018-07-08T09:51:50.841Z,4.43
2018-07-08T09:54:20.189Z,3.70
2018-07-08T09:56:48.446Z,3.90
2018-07-08T09:59:16.837Z,4.60
2018-07-08T10:01:46.489Z,3.83
2018-07-08T10:04:18.085Z,4.30
2018-07-08T10:06:48.138Z,3.27
2018-07-08T10:09:18.681Z,3.60
2018-07-08T10:11:46.961Z,4.40
2018-07-08T10:14:16.427Z,4.03
2018-07-08T10:16:44.943Z,3.70
2018-07-08T10:19:14.337Z,4.37
2018-07-08T10:21:42.647Z,3.90
2018-07-08T10:24:12.097Z,3.47
2018-07-08T10:26:40.453Z,3.80
2018-07-08T10:29:09.018Z,3.63
2018-07-08T10:31:48.214Z,3.40
2018-07-08T10:34:16.772Z,6.40
2018-07-08T10:36:45.177Z,5.30
2018-07-08T10:39:14.559Z,3.83
2018-07-08T10:41:43.169Z,3.80
2018-07-08T10:44:11.823Z,3.87
2018-07-08T10:46:40.539Z,2.53
2018-07-08T10:49:09.065Z,4.77
2018-07-08T10:51:37.493Z,3.13
2018-07-08T10:54:06.131Z,3.50
2018-07-08T10:56:34.401Z,3.10
2018-07-08T11:00:05.637Z,2.53
2018-07-08T11:02:33.918Z,2.60
2018-07-08T11:05:02.157Z,3.03
2018-07-08T11:07:30.433Z,3.00
2018-07-08T11:09:58.713Z,2.33
2018-07-08T11:12:27.837Z,3.00
2018-07-08T11:14:56.119Z,3.40
2018-07-08T11:17:24.397Z,2.63
2018-07-08T11:19:52.689Z,2.97
2018-07-08T11:22:21.005Z,3.27
2018-07-08T11:24:49.260Z,2.90
2018-07-08T11:27:17.513Z,2.70
2018-07-08T11:29:45.774Z,3.07
2018-07-08T11:32:14.030Z,2.83
2018-07-08T11:34:42.329Z,2.80
2018-07-08T11:37:10.578Z,2.43
2018-07-08T11:39:38.856Z,3.50
2018-07-08T11:42:07.641Z,2.23
2018-07-08T11:44:35.941Z,3.30
2018-07-08T11:47:04.194Z,2.43
2018-07-08T11:49:32.474Z,3.30
2018-07-08T11:52:00.729Z,3.17
2018-07-08T11:54:28.993Z,2.73
2018-07-08T11:56:57.261Z,2.47
2018-07-08T11:59:25.657Z,3.30
2018-07-08T12:01:53.933Z,3.00
2018-07-08T12:04:22.282Z,2.90
2018-07-08T12:06:51.173Z,2.70
2018-07-08T12:09:19.446Z,3.03
2018-07-08T12:11:47.753Z,2.87
2018-07-08T12:14:16.033Z,3.50
2018-07-08T12:16:44.309Z,2.70
2018-07-08T12:19:12.563Z,2.47
2018-07-08T12:21:40.863Z,2.57
2018-07-08T12:24:09.245Z,3.00
2018-07-08T12:26:37.532Z,2.67
2018-07-08T12:29:05.861Z,3.10
2018-07-08T12:31:34.133Z,3.17
2018-07-08T12:34:02.391Z,2.50
2018-07-08T12:36:30.669Z,2.40
2018-07-08T12:38:58.909Z,2.60
2018-07-08T12:41:27.177Z,3.80
2018-07-08T12:43:55.477Z,3.40
2018-07-08T12:46:23.745Z,3.17
2018-07-08T12:48:51.980Z,2.90
2018-07-08T12:51:20.267Z,3.33
2018-07-08T12:53:48.689Z,3.97
2018-07-08T12:56:16.957Z,3.27
2018-07-08T12:58:45.289Z,3.10
2018-07-08T13:01:13.842Z,3.40
2018-07-08T13:03:42.085Z,2.97
2018-07-08T13:06:10.326Z,4.00
2018-07-08T13:08:38.609Z,3.20
2018-07-08T13:11:06.855Z,2.93
2018-07-08T13:13:35.233Z,4.03
2018-07-08T13:16:03.481Z,3.77
2018-07-08T13:18:31.775Z,3.43
2018-07-08T13:21:00.181Z,3.40
2018-07-08T13:23:28.622Z,3.67
2018-07-08T13:25:56.890Z,4.00
2018-07-08T13:28:25.213Z,4.20
2018-07-08T13:30:53.481Z,3.10
2018-07-08T13:33:21.787Z,3.40
2018-07-08T13:35:50.037Z,3.93
2018-07-08T13:38:19.329Z,3.27
2018-07-08T13:40:47.827Z,3.40
2018-07-08T13:43:16.123Z,3.67
2018-07-08T13:45:44.348Z,3.43
2018-07-08T13:48:12.613Z,3.70
2018-07-08T13:50:41.247Z,3.53
2018-07-08T13:53:09.790Z,3.40
2018-07-08T13:55:38.209Z,3.70
2018-07-08T13:58:06.501Z,3.93
2018-07-08T14:00:34.793Z,3.50
2018-07-08T14:03:03.046Z,3.67
2018-07-08T14:05:31.472Z,3.20
2018-07-08T14:07:59.748Z,3.17
2018-07-08T14:10:28.007Z,3.10
2018-07-08T14:12:56.277Z,3.00
2018-07-08T14:15:24.569Z,3.00
2018-07-08T14:17:52.828Z,2.80
2018-07-08T14:20:21.141Z,3.03
2018-07-08T14:22:49.477Z,2.90
2018-07-08T14:25:17.773Z,3.23
2018-07-08T14:27:46.033Z,3.27
2018-07-08T14:30:14.325Z,3.10
2018-07-08T14:32:42.601Z,2.87
2018-07-08T14:35:10.909Z,2.10
2018-07-08T14:37:39.204Z,2.60
2018-07-08T14:40:07.493Z,3.10
2018-07-08T14:42:35.766Z,3.20
2018-07-08T14:45:04.110Z,2.20
2018-07-08T14:47:32.359Z,2.03
2018-07-08T14:50:00.763Z,3.07
2018-07-08T14:52:29.080Z,2.33
2018-07-08T14:54:57.381Z,3.27
2018-07-08T14:57:25.729Z,2.37
2018-07-08T14:59:53.989Z,3.10
2018-07-08T15:02:22.269Z,2.80
2018-07-08T15:04:50.570Z,2.53
2018-07-08T15:07:18.846Z,1.80
2018-07-08T15:09:47.109Z,2.27
2018-07-08T15:12:15.425Z,2.30
2018-07-08T15:14:43.685Z,2.17
2018-07-08T15:17:12.006Z,2.30
2018-07-08T15:19:40.275Z,2.30
2018-07-08T15:22:08.613Z,3.07
2018-07-08T15:24:37.034Z,2.53
2018-07-08T15:27:05.579Z,2.90
2018-07-08T15:29:33.847Z,2.23
2018-07-08T15:32:02.149Z,2.60
2018-07-08T15:34:30.404Z,2.30
2018-07-08T15:36:58.693Z,2.37
2018-07-08T15:39:27.005Z,2.27
2018-07-08T15:41:55.339Z,2.03
2018-07-08T15:44:23.721Z,2.97
2018-07-08T15:46:52.027Z,2.00
2018-07-08T15:49:20.553Z,2.23
2018-07-08T15:51:48.754Z,1.97
2018-07-08T15:54:17.042Z,1.90
2018-07-08T15:56:45.306Z,1.87
2018-07-08T15:59:13.605Z,2.40
2018-07-08T16:01:41.869Z,2.60
2018-07-08T16:04:10.239Z,2.47
2018-07-08T16:06:38.493Z,2.10
2018-07-08T16:09:07.057Z,2.03
2018-07-08T16:11:35.407Z,1.77
2018-07-08T16:14:04.097Z,2.20
2018-07-08T16:16:32.361Z,2.03
2018-07-08T16:19:00.653Z,2.30
2018-07-08T16:21:29.225Z,2.20
2018-07-08T16:23:57.509Z,1.50
2018-07-08T16:26:25.769Z,1.87
2018-07-08T16:28:54.237Z,2.40
2018-07-08T16:31:22.485Z,2.30
2018-07-08T16:33:50.788Z,2.30
2018-07-08T16:36:19.052Z,1.83
2018-07-08T16:38:48.408Z,1.97
2018-07-08T16:41:16.673Z,1.93
2018-07-08T16:43:44.936Z,1.63
2018-07-08T16:46:16.469Z,1.93
2018-07-08T16:48:44.733Z,2.10
2018-07-08T16:51:13.010Z,1.70
2018-07-08T16:53:41.273Z,2.23
2018-07-08T16:56:09.588Z,1.60
2018-07-08T16:58:37.864Z,2.00
2018-07-08T17:01:06.328Z,2.00
2018-07-08T17:03:34.606Z,1.40
2018-07-08T17:06:02.904Z,1.93
2018-07-08T17:08:31.169Z,1.73
2018-07-08T17:11:00.460Z,1.60
2018-07-08T17:13:28.717Z,1.93
2018-07-08T17:15:56.997Z,1.93
2018-07-08T17:18:25.412Z,1.47
2018-07-08T17:20:53.729Z,1.30
2018-07-08T17:23:22.190Z,1.43
2018-07-08T17:25:50.693Z,1.90
2018-07-08T17:28:18.961Z,1.60
2018-07-08T17:30:47.208Z,1.77
2018-07-08T17:33:15.548Z,1.43
2018-07-08T17:35:43.725Z,1.63
2018-07-08T17:38:11.984Z,1.73
2018-07-08T17:40:40.253Z,1.30
2018-07-08T17:43:08.581Z,1.97
2018-07-08T17:45:36.821Z,2.40
2018-07-08T17:48:05.421Z,1.50
2018-07-08T17:50:33.681Z,1.73
2018-07-08T17:53:02.050Z,1.80
2018-07-08T17:55:31.053Z,1.40
2018-07-08T17:57:59.309Z,1.67
2018-07-08T18:00:27.549Z,1.63
2018-07-08T18:02:56.837Z,1.70
2018-07-08T18:05:25.165Z,2.07
2018-07-08T18:07:54.590Z,1.93
2018-07-08T18:10:22.825Z,1.70
2018-07-08T18:12:51.117Z,1.72
2018-07-08T18:15:19.356Z,1.57
2018-07-08T18:17:47.649Z,2.60
2018-07-08T18:20:15.905Z,2.17
2018-07-08T18:22:44.194Z,1.83
2018-07-08T18:25:12.481Z,2.10
2018-07-08T18:27:40.747Z,2.47
2018-07-08T18:30:09.053Z,2.30
2018-07-08T18:32:37.340Z,2.00
2018-07-08T18:35:05.653Z,2.00
2018-07-08T18:37:33.905Z,2.10
2018-07-08T18:40:02.174Z,2.23
2018-07-08T18:42:30.539Z,1.80
2018-07-08T18:44:58.809Z,1.73
2018-07-08T18:47:27.069Z,1.80
2018-07-08T18:49:55.385Z,2.00
2018-07-08T18:52:23.893Z,2.30
2018-07-08T18:54:52.448Z,2.47
2018-07-08T18:57:20.690Z,1.63
2018-07-08T18:59:48.989Z,1.77
2018-07-08T19:02:17.233Z,2.30
2018-07-08T19:04:45.525Z,2.60
2018-07-08T19:07:13.801Z,1.97
2018-07-08T19:09:42.356Z,1.70
2018-07-08T19:12:10.616Z,2.20
2018-07-08T19:14:39.901Z,2.80
2018-07-08T19:17:08.161Z,2.10
2018-07-08T19:19:36.610Z,2.17
2018-07-08T19:22:04.880Z,1.90
2018-07-08T19:24:33.245Z,1.70
2018-07-08T19:27:01.502Z,2.40
2018-07-08T19:29:29.741Z,2.80
2018-07-08T19:31:58.028Z,1.80
2018-07-08T19:34:26.273Z,2.20
2018-07-08T19:36:54.690Z,2.10
2018-07-08T19:39:22.939Z,2.10
2018-07-08T19:41:51.627Z,2.00
2018-07-08T19:44:20.258Z,3.00
2018-07-08T19:46:48.597Z,2.57
2018-07-08T19:49:16.858Z,2.23
2018-07-08T19:51:45.141Z,2.30
2018-07-08T19:54:13.404Z,2.70
2018-07-08T19:56:41.678Z,2.60
2018-07-08T19:59:10.015Z,1.80
2018-07-08T20:01:39.384Z,2.60
2018-07-08T20:04:07.642Z,2.53
2018-07-08T20:06:37.069Z,2.70
2018-07-08T20:09:06.345Z,2.60
2018-07-08T20:11:34.757Z,3.00
2018-07-08T20:14:03.063Z,3.17
2018-07-08T20:16:31.388Z,2.73
2018-07-08T20:18:59.669Z,3.47
2018-07-08T20:21:29.237Z,3.50
2018-07-08T20:23:57.800Z,3.50
2018-07-08T20:26:26.081Z,3.30
2018-07-08T20:28:54.381Z,3.50
2018-07-08T20:31:22.705Z,3.57
2018-07-08T20:33:50.977Z,3.07
2018-07-08T20:36:19.418Z,3.67
2018-07-08T20:38:47.745Z,3.60
2018-07-08T20:41:16.084Z,3.73
2018-07-08T20:43:44.390Z,4.30
2018-07-08T20:46:12.641Z,3.43
2018-07-08T20:48:40.924Z,3.93
2018-07-08T20:51:10.181Z,4.63
2018-07-08T20:53:38.473Z,4.57
2018-07-08T20:56:06.854Z,4.57
2018-07-08T20:58:35.155Z,3.93
2018-07-08T21:01:03.409Z,4.13
2018-07-08T21:03:31.777Z,3.90
2018-07-08T21:06:00.210Z,4.97
2018-07-08T21:08:28.585Z,4.90
2018-07-08T21:10:57.884Z,4.50
2018-07-08T21:13:27.205Z,4.13
2018-07-08T21:15:56.065Z,4.87
2018-07-08T21:18:24.325Z,5.53
2018-07-08T21:20:52.713Z,6.73
2018-07-08T21:23:21.210Z,4.90
2018-07-08T21:25:49.506Z,5.20
2018-07-08T21:28:17.773Z,4.90
2018-07-08T21:30:46.037Z,5.40
2018-07-08T21:33:14.377Z,5.80
2018-07-08T21:35:42.661Z,6.00
2018-07-08T21:38:10.939Z,5.33
2018-07-08T21:40:39.233Z,5.20
2018-07-08T21:43:07.536Z,5.13
2018-07-08T21:45:35.829Z,5.43
2018-07-08T21:48:04.082Z,4.60
2018-07-08T21:50:32.397Z,5.00
2018-07-08T21:53:00.641Z,3.90
2018-07-08T21:55:28.921Z,3.77
2018-07-08T21:57:57.178Z,3.30
2018-07-08T22:00:30.932Z,3.90
2018-07-08T22:02:59.464Z,3.83
2018-07-08T22:05:28.653Z,3.97
2018-07-08T22:08:04.211Z,3.67
2018-07-08T22:10:32.917Z,3.83
2018-07-08T22:13:02.321Z,3.03
2018-07-08T22:15:31.702Z,4.73
2018-07-08T22:18:00.056Z,4.60
2018-07-08T22:20:29.002Z,4.70
2018-07-08T22:22:57.290Z,3.83
2018-07-08T22:25:25.553Z,4.50
2018-07-08T22:27:53.861Z,4.73
2018-07-08T22:30:22.114Z,3.67
2018-07-08T22:32:50.392Z,3.70
2018-07-08T22:35:18.648Z,3.93
2018-07-08T22:37:47.905Z,4.00
2018-07-08T22:40:16.154Z,3.80
2018-07-08T22:42:44.961Z,4.37
2018-07-08T22:45:13.228Z,4.63
2018-07-08T22:47:41.497Z,4.73
2018-07-08T22:50:09.763Z,4.50
2018-07-08T22:52:38.057Z,5.30
2018-07-08T22:55:06.357Z,4.80
2018-07-08T22:57:34.609Z,4.93
2018-07-08T23:00:14.211Z,4.47
2018-07-08T23:02:44.109Z,5.43
2018-07-08T23:05:12.705Z,4.87
2018-07-08T23:07:41.463Z,4.77
2018-07-08T23:10:10.533Z,4.90
2018-07-08T23:12:38.833Z,4.70
2018-07-08T23:15:07.348Z,4.70
2018-07-08T23:17:35.611Z,3.83
2018-07-08T23:20:03.967Z,4.93
2018-07-08T23:22:44.692Z,5.73
2018-07-08T23:25:13.022Z,4.20
2018-07-08T23:27:41.389Z,4.00
2018-07-08T23:30:09.665Z,4.43
2018-07-08T23:32:38.050Z,4.27
2018-07-08T23:35:07.045Z,4.10
2018-07-08T23:37:35.305Z,4.23
2018-07-08T23:40:03.606Z,4.00
2018-07-08T23:42:31.853Z,4.80
2018-07-08T23:45:00.133Z,3.80
2018-07-08T23:47:28.397Z,4.23
2018-07-08T23:49:56.890Z,4.23
2018-07-08T23:52:25.184Z,3.97
2018-07-08T23:54:53.520Z,5.57
2018-07-08T23:57:22.815Z,4.40
2018-07-08T23:59:51.105Z,4.43
